Novi Pazar, Serbia
Current Conditions -  °F | °C
As of 4:00 PM on Wednesday 22 Oct 2014 (Local Time) from LYKV Reporting Station
Moderate Rain Moderate Rain  
Wind Chill: 40°   Ceiling: 700
Heat Index: 45°   Visibility: 2.5mi
Dew Point: 45°   Wind: 8mph
Humidity: 100%   Direction: 290°WNW
Pressure: 29.71"   Gusts: NA
Location:  43.15°N, 20.52°E
Report Text: LYKV 221400Z 29007KT 4000 RA BKN007 BKN027 07/07 Q1006 NOSIG
Loading
Personal Weather Stations






























Interactive Weather Map
Tropical Storm Tracking
New forecast layout! Learn more

10-Day Weather Forecast

Advertisements
Track Severe Weather on mobile